sensor_id;sensor_type;location;lat;lon;timestamp;temperature;humidity
80540;DHT22;69869;48.036;15.780;2023-10-31T00:02:08;15.40;92.70
80540;DHT22;69869;48.036;15.780;2023-10-31T00:04:34;15.40;92.80
80540;DHT22;69869;48.036;15.780;2023-10-31T00:06:59;15.40;92.70
80540;DHT22;69869;48.036;15.780;2023-10-31T00:09:25;15.40;92.70
80540;DHT22;69869;48.036;15.780;2023-10-31T00:11:50;15.40;92.70
80540;DHT22;69869;48.036;15.780;2023-10-31T00:14:16;15.40;92.70
80540;DHT22;69869;48.036;15.780;2023-10-31T00:16:42;15.40;92.70
80540;DHT22;69869;48.036;15.780;2023-10-31T00:19:07;15.40;92.70
80540;DHT22;69869;48.036;15.780;2023-10-31T00:21:33;15.50;92.80
80540;DHT22;69869;48.036;15.780;2023-10-31T00:23:59;15.40;92.70
80540;DHT22;69869;48.036;15.780;2023-10-31T00:26:24;15.50;92.80
80540;DHT22;69869;48.036;15.780;2023-10-31T00:28:50;15.40;92.80
80540;DHT22;69869;48.036;15.780;2023-10-31T00:31:15;15.50;92.80
80540;DHT22;69869;48.036;15.780;2023-10-31T00:33:41;15.40;92.80
80540;DHT22;69869;48.036;15.780;2023-10-31T00:36:07;15.40;92.80
80540;DHT22;69869;48.036;15.780;2023-10-31T00:38:33;15.50;92.90
80540;DHT22;69869;48.036;15.780;2023-10-31T00:40:58;15.50;92.80
80540;DHT22;69869;48.036;15.780;2023-10-31T00:43:24;15.50;92.80
80540;DHT22;69869;48.036;15.780;2023-10-31T00:45:50;15.40;92.70
80540;DHT22;69869;48.036;15.780;2023-10-31T00:48:15;15.40;92.80
80540;DHT22;69869;48.036;15.780;2023-10-31T00:50:41;15.50;92.70
80540;DHT22;69869;48.036;15.780;2023-10-31T00:53:07;15.50;92.70
80540;DHT22;69869;48.036;15.780;2023-10-31T00:55:33;15.40;92.70
80540;DHT22;69869;48.036;15.780;2023-10-31T00:57:59;15.50;92.70
80540;DHT22;69869;48.036;15.780;2023-10-31T01:00:24;15.40;92.70
80540;DHT22;69869;48.036;15.780;2023-10-31T01:02:50;15.50;92.80
80540;DHT22;69869;48.036;15.780;2023-10-31T01:05:16;15.40;92.70
80540;DHT22;69869;48.036;15.780;2023-10-31T01:07:41;15.50;92.80
80540;DHT22;69869;48.036;15.780;2023-10-31T01:10:07;15.50;92.80
80540;DHT22;69869;48.036;15.780;2023-10-31T01:12:33;15.40;92.70
80540;DHT22;69869;48.036;15.780;2023-10-31T01:14:59;15.40;92.70
80540;DHT22;69869;48.036;15.780;2023-10-31T01:17:25;15.50;92.80
80540;DHT22;69869;48.036;15.780;2023-10-31T01:19:51;15.40;92.70
80540;DHT22;69869;48.036;15.780;2023-10-31T01:22:16;15.50;92.80
80540;DHT22;69869;48.036;15.780;2023-10-31T01:24:42;15.50;92.80
80540;DHT22;69869;48.036;15.780;2023-10-31T01:27:07;15.50;92.80
80540;DHT22;69869;48.036;15.780;2023-10-31T01:29:33;15.50;92.80
80540;DHT22;69869;48.036;15.780;2023-10-31T01:31:59;15.50;92.80
80540;DHT22;69869;48.036;15.780;2023-10-31T01:34:24;15.50;92.70
80540;DHT22;69869;48.036;15.780;2023-10-31T01:36:50;15.40;92.70
80540;DHT22;69869;48.036;15.780;2023-10-31T01:39:15;15.50;92.80
80540;DHT22;69869;48.036;15.780;2023-10-31T01:41:41;15.50;92.80
80540;DHT22;69869;48.036;15.780;2023-10-31T01:44:08;15.50;92.80
80540;DHT22;69869;48.036;15.780;2023-10-31T01:46:34;15.40;92.70
80540;DHT22;69869;48.036;15.780;2023-10-31T01:48:59;15.40;92.70
80540;DHT22;69869;48.036;15.780;2023-10-31T01:51:26;15.50;92.80
80540;DHT22;69869;48.036;15.780;2023-10-31T01:53:52;15.50;92.80
80540;DHT22;69869;48.036;15.780;2023-10-31T01:56:19;15.50;92.80
80540;DHT22;69869;48.036;15.780;2023-10-31T01:58:45;15.50;92.80
80540;DHT22;69869;48.036;15.780;2023-10-31T02:01:12;15.50;92.70
80540;DHT22;69869;48.036;15.780;2023-10-31T02:03:38;15.50;92.80
80540;DHT22;69869;48.036;15.780;2023-10-31T02:06:04;15.50;92.80
80540;DHT22;69869;48.036;15.780;2023-10-31T02:08:30;15.50;92.70
80540;DHT22;69869;48.036;15.780;2023-10-31T02:10:56;15.50;92.80
80540;DHT22;69869;48.036;15.780;2023-10-31T02:13:25;15.50;92.70
80540;DHT22;69869;48.036;15.780;2023-10-31T02:15:50;15.50;92.70
80540;DHT22;69869;48.036;15.780;2023-10-31T02:18:16;15.50;92.70
80540;DHT22;69869;48.036;15.780;2023-10-31T02:20:42;15.50;92.70
80540;DHT22;69869;48.036;15.780;2023-10-31T02:23:08;15.50;92.70
80540;DHT22;69869;48.036;15.780;2023-10-31T02:25:33;15.50;92.70
80540;DHT22;69869;48.036;15.780;2023-10-31T02:27:59;15.50;92.80
80540;DHT22;69869;48.036;15.780;2023-10-31T02:30:26;15.50;92.80
80540;DHT22;69869;48.036;15.780;2023-10-31T02:32:51;15.50;92.80
80540;DHT22;69869;48.036;15.780;2023-10-31T02:35:17;15.50;92.80
80540;DHT22;69869;48.036;15.780;2023-10-31T02:37:47;15.50;92.80
80540;DHT22;69869;48.036;15.780;2023-10-31T02:40:13;15.50;92.80
80540;DHT22;69869;48.036;15.780;2023-10-31T02:42:38;15.40;92.70
80540;DHT22;69869;48.036;15.780;2023-10-31T02:45:04;15.50;92.80
80540;DHT22;69869;48.036;15.780;2023-10-31T02:47:30;15.40;92.70
80540;DHT22;69869;48.036;15.780;2023-10-31T02:49:56;15.50;92.80
80540;DHT22;69869;48.036;15.780;2023-10-31T02:52:22;15.50;92.80
80540;DHT22;69869;48.036;15.780;2023-10-31T02:54:47;15.40;92.70
80540;DHT22;69869;48.036;15.780;2023-10-31T02:57:14;15.40;92.70
80540;DHT22;69869;48.036;15.780;2023-10-31T02:59:40;15.50;93.10
80540;DHT22;69869;48.036;15.780;2023-10-31T03:02:05;15.40;92.70
80540;DHT22;69869;48.036;15.780;2023-10-31T03:04:31;15.50;92.70
80540;DHT22;69869;48.036;15.780;2023-10-31T03:06:56;15.50;92.70
80540;DHT22;69869;48.036;15.780;2023-10-31T03:09:22;15.50;92.70
80540;DHT22;69869;48.036;15.780;2023-10-31T03:11:48;15.50;92.70
80540;DHT22;69869;48.036;15.780;2023-10-31T03:14:13;15.40;92.70
80540;DHT22;69869;48.036;15.780;2023-10-31T03:16:39;15.50;92.80
80540;DHT22;69869;48.036;15.780;2023-10-31T03:19:05;15.50;92.80
80540;DHT22;69869;48.036;15.780;2023-10-31T03:21:31;15.50;92.70
80540;DHT22;69869;48.036;15.780;2023-10-31T03:23:57;15.50;92.80
80540;DHT22;69869;48.036;15.780;2023-10-31T03:26:22;15.50;92.80
80540;DHT22;69869;48.036;15.780;2023-10-31T03:28:48;15.50;92.70
80540;DHT22;69869;48.036;15.780;2023-10-31T03:31:14;15.50;92.80
80540;DHT22;69869;48.036;15.780;2023-10-31T03:33:41;15.50;92.70
80540;DHT22;69869;48.036;15.780;2023-10-31T03:36:07;15.50;92.70
80540;DHT22;69869;48.036;15.780;2023-10-31T03:38:34;15.50;92.70
80540;DHT22;69869;48.036;15.780;2023-10-31T03:41:00;15.50;92.70
80540;DHT22;69869;48.036;15.780;2023-10-31T03:43:26;15.50;92.70
80540;DHT22;69869;48.036;15.780;2023-10-31T03:45:51;15.50;92.70
80540;DHT22;69869;48.036;15.780;2023-10-31T03:48:17;15.50;92.80
80540;DHT22;69869;48.036;15.780;2023-10-31T03:50:43;15.50;92.80
80540;DHT22;69869;48.036;15.780;2023-10-31T03:53:09;15.50;92.70
80540;DHT22;69869;48.036;15.780;2023-10-31T03:55:34;15.50;92.70
80540;DHT22;69869;48.036;15.780;2023-10-31T03:58:00;15.50;92.70
80540;DHT22;69869;48.036;15.780;2023-10-31T04:00:26;15.50;92.70
80540;DHT22;69869;48.036;15.780;2023-10-31T04:02:51;15.50;92.70
80540;DHT22;69869;48.036;15.780;2023-10-31T04:05:17;15.50;92.70
80540;DHT22;69869;48.036;15.780;2023-10-31T04:07:45;15.50;92.70
80540;DHT22;69869;48.036;15.780;2023-10-31T04:10:11;15.50;92.70
80540;DHT22;69869;48.036;15.780;2023-10-31T04:12:36;15.50;92.70
80540;DHT22;69869;48.036;15.780;2023-10-31T04:15:03;15.50;92.70
80540;DHT22;69869;48.036;15.780;2023-10-31T04:17:28;15.50;92.70
80540;DHT22;69869;48.036;15.780;2023-10-31T04:19:54;15.50;92.70
80540;DHT22;69869;48.036;15.780;2023-10-31T04:22:19;15.50;92.70
80540;DHT22;69869;48.036;15.780;2023-10-31T04:24:45;15.50;92.70
80540;DHT22;69869;48.036;15.780;2023-10-31T04:27:11;15.50;92.70
80540;DHT22;69869;48.036;15.780;2023-10-31T04:29:36;15.50;93.00
80540;DHT22;69869;48.036;15.780;2023-10-31T04:32:02;15.50;92.70
80540;DHT22;69869;48.036;15.780;2023-10-31T04:34:28;15.50;92.70
80540;DHT22;69869;48.036;15.780;2023-10-31T04:36:54;15.50;92.70
80540;DHT22;69869;48.036;15.780;2023-10-31T04:39:19;15.50;92.70
80540;DHT22;69869;48.036;15.780;2023-10-31T04:41:45;15.50;92.70
80540;DHT22;69869;48.036;15.780;2023-10-31T04:44:10;15.50;93.00
80540;DHT22;69869;48.036;15.780;2023-10-31T04:46:36;15.50;92.70
80540;DHT22;69869;48.036;15.780;2023-10-31T04:49:02;15.50;92.70
80540;DHT22;69869;48.036;15.780;2023-10-31T04:51:36;15.50;92.70
80540;DHT22;69869;48.036;15.780;2023-10-31T04:54:02;15.50;92.70
80540;DHT22;69869;48.036;15.780;2023-10-31T04:56:27;15.50;92.70
80540;DHT22;69869;48.036;15.780;2023-10-31T04:58:53;15.50;92.70
80540;DHT22;69869;48.036;15.780;2023-10-31T05:01:19;15.50;92.70
80540;DHT22;69869;48.036;15.780;2023-10-31T05:03:45;15.60;92.70
80540;DHT22;69869;48.036;15.780;2023-10-31T05:06:10;15.50;92.70
80540;DHT22;69869;48.036;15.780;2023-10-31T05:08:36;15.50;92.70
80540;DHT22;69869;48.036;15.780;2023-10-31T05:11:02;15.50;92.70
80540;DHT22;69869;48.036;15.780;2023-10-31T05:13:28;15.60;92.70
80540;DHT22;69869;48.036;15.780;2023-10-31T05:15:54;15.50;92.70
80540;DHT22;69869;48.036;15.780;2023-10-31T05:18:22;15.50;92.70
80540;DHT22;69869;48.036;15.780;2023-10-31T05:20:49;15.60;92.70
80540;DHT22;69869;48.036;15.780;2023-10-31T05:23:14;15.50;92.60
80540;DHT22;69869;48.036;15.780;2023-10-31T05:25:40;15.50;92.60
80540;DHT22;69869;48.036;15.780;2023-10-31T05:28:05;15.50;92.60
80540;DHT22;69869;48.036;15.780;2023-10-31T05:30:31;15.50;92.60
80540;DHT22;69869;48.036;15.780;2023-10-31T05:32:57;15.50;92.60
80540;DHT22;69869;48.036;15.780;2023-10-31T05:35:22;15.50;92.70
80540;DHT22;69869;48.036;15.780;2023-10-31T05:37:48;15.50;92.60
80540;DHT22;69869;48.036;15.780;2023-10-31T05:40:15;15.50;92.70
80540;DHT22;69869;48.036;15.780;2023-10-31T05:42:41;15.50;92.60
80540;DHT22;69869;48.036;15.780;2023-10-31T05:45:07;15.60;92.60
80540;DHT22;69869;48.036;15.780;2023-10-31T05:47:33;15.50;92.60
80540;DHT22;69869;48.036;15.780;2023-10-31T05:49:58;15.50;92.60
80540;DHT22;69869;48.036;15.780;2023-10-31T05:52:30;15.50;92.60
80540;DHT22;69869;48.036;15.780;2023-10-31T05:54:57;15.50;92.60
80540;DHT22;69869;48.036;15.780;2023-10-31T05:57:23;15.60;92.60
80540;DHT22;69869;48.036;15.780;2023-10-31T05:59:49;15.60;92.60
80540;DHT22;69869;48.036;15.780;2023-10-31T06:02:15;15.50;92.60
80540;DHT22;69869;48.036;15.780;2023-10-31T06:04:40;15.60;92.60
80540;DHT22;69869;48.036;15.780;2023-10-31T06:07:06;15.60;92.60
80540;DHT22;69869;48.036;15.780;2023-10-31T06:09:32;15.60;92.70
80540;DHT22;69869;48.036;15.780;2023-10-31T06:12:01;15.60;92.60
80540;DHT22;69869;48.036;15.780;2023-10-31T06:14:27;15.60;92.60
80540;DHT22;69869;48.036;15.780;2023-10-31T06:16:53;15.60;92.60
80540;DHT22;69869;48.036;15.780;2023-10-31T06:19:19;15.60;92.60
80540;DHT22;69869;48.036;15.780;2023-10-31T06:21:44;15.60;92.60
80540;DHT22;69869;48.036;15.780;2023-10-31T06:24:10;15.50;92.50
80540;DHT22;69869;48.036;15.780;2023-10-31T06:26:36;15.60;92.60
80540;DHT22;69869;48.036;15.780;2023-10-31T06:29:01;15.60;92.60
80540;DHT22;69869;48.036;15.780;2023-10-31T06:31:27;15.60;92.80
80540;DHT22;69869;48.036;15.780;2023-10-31T06:33:53;15.60;92.60
80540;DHT22;69869;48.036;15.780;2023-10-31T06:36:18;15.60;92.50
80540;DHT22;69869;48.036;15.780;2023-10-31T06:38:44;15.60;92.60
80540;DHT22;69869;48.036;15.780;2023-10-31T06:41:10;15.60;92.60
80540;DHT22;69869;48.036;15.780;2023-10-31T06:43:35;15.60;92.60
80540;DHT22;69869;48.036;15.780;2023-10-31T06:46:02;15.60;92.50
80540;DHT22;69869;48.036;15.780;2023-10-31T06:48:29;15.60;92.50
80540;DHT22;69869;48.036;15.780;2023-10-31T06:50:58;15.60;92.60
80540;DHT22;69869;48.036;15.780;2023-10-31T06:53:23;15.60;92.50
80540;DHT22;69869;48.036;15.780;2023-10-31T06:55:49;15.60;92.60
80540;DHT22;69869;48.036;15.780;2023-10-31T06:58:14;15.60;92.60
80540;DHT22;69869;48.036;15.780;2023-10-31T07:00:40;15.60;92.50
80540;DHT22;69869;48.036;15.780;2023-10-31T07:03:06;15.60;92.50
80540;DHT22;69869;48.036;15.780;2023-10-31T07:05:37;15.60;92.50
80540;DHT22;69869;48.036;15.780;2023-10-31T07:08:03;15.60;92.50
80540;DHT22;69869;48.036;15.780;2023-10-31T07:10:29;15.60;92.50
80540;DHT22;69869;48.036;15.780;2023-10-31T07:12:55;15.60;92.60
80540;DHT22;69869;48.036;15.780;2023-10-31T07:15:21;15.60;92.50
80540;DHT22;69869;48.036;15.780;2023-10-31T07:17:47;15.60;92.60
80540;DHT22;69869;48.036;15.780;2023-10-31T07:20:13;15.60;92.60
80540;DHT22;69869;48.036;15.780;2023-10-31T07:22:38;15.60;92.60
80540;DHT22;69869;48.036;15.780;2023-10-31T07:25:06;15.60;92.60
80540;DHT22;69869;48.036;15.780;2023-10-31T07:27:31;15.60;92.60
80540;DHT22;69869;48.036;15.780;2023-10-31T07:29:57;15.60;92.50
80540;DHT22;69869;48.036;15.780;2023-10-31T07:32:23;15.60;92.50
80540;DHT22;69869;48.036;15.780;2023-10-31T07:34:48;15.60;92.50
80540;DHT22;69869;48.036;15.780;2023-10-31T07:37:14;15.60;92.50
80540;DHT22;69869;48.036;15.780;2023-10-31T07:39:39;15.60;92.50
80540;DHT22;69869;48.036;15.780;2023-10-31T07:42:06;15.60;92.50
80540;DHT22;69869;48.036;15.780;2023-10-31T07:44:31;15.60;92.50
80540;DHT22;69869;48.036;15.780;2023-10-31T07:46:57;15.60;92.50
80540;DHT22;69869;48.036;15.780;2023-10-31T07:49:22;15.60;92.40
80540;DHT22;69869;48.036;15.780;2023-10-31T07:51:48;15.60;92.40
80540;DHT22;69869;48.036;15.780;2023-10-31T07:54:14;15.60;92.40
80540;DHT22;69869;48.036;15.780;2023-10-31T07:56:41;15.60;92.50
80540;DHT22;69869;48.036;15.780;2023-10-31T07:59:07;15.60;92.50
80540;DHT22;69869;48.036;15.780;2023-10-31T08:01:36;15.50;92.50
80540;DHT22;69869;48.036;15.780;2023-10-31T08:04:02;15.60;92.50
80540;DHT22;69869;48.036;15.780;2023-10-31T08:06:28;15.60;92.50
80540;DHT22;69869;48.036;15.780;2023-10-31T08:08:53;15.60;92.50
80540;DHT22;69869;48.036;15.780;2023-10-31T08:11:19;15.50;92.50
80540;DHT22;69869;48.036;15.780;2023-10-31T08:13:44;15.60;92.50
80540;DHT22;69869;48.036;15.780;2023-10-31T08:16:10;15.60;92.40
80540;DHT22;69869;48.036;15.780;2023-10-31T08:18:36;15.60;92.50
80540;DHT22;69869;48.036;15.780;2023-10-31T08:21:03;15.60;92.50
80540;DHT22;69869;48.036;15.780;2023-10-31T08:23:29;15.60;92.50
80540;DHT22;69869;48.036;15.780;2023-10-31T08:25:55;15.60;92.50
80540;DHT22;69869;48.036;15.780;2023-10-31T08:28:21;15.60;92.50
80540;DHT22;69869;48.036;15.780;2023-10-31T08:30:46;15.60;92.50
80540;DHT22;69869;48.036;15.780;2023-10-31T08:33:13;15.60;92.50
80540;DHT22;69869;48.036;15.780;2023-10-31T08:35:39;15.60;92.50
80540;DHT22;69869;48.036;15.780;2023-10-31T08:38:05;15.60;92.50
80540;DHT22;69869;48.036;15.780;2023-10-31T08:40:31;15.60;92.50
80540;DHT22;69869;48.036;15.780;2023-10-31T08:42:56;15.60;92.50
80540;DHT22;69869;48.036;15.780;2023-10-31T08:45:22;15.60;92.50
80540;DHT22;69869;48.036;15.780;2023-10-31T08:47:48;15.60;92.50
80540;DHT22;69869;48.036;15.780;2023-10-31T08:50:14;15.50;92.50
80540;DHT22;69869;48.036;15.780;2023-10-31T08:52:39;15.60;92.50
80540;DHT22;69869;48.036;15.780;2023-10-31T08:55:05;15.50;92.50
80540;DHT22;69869;48.036;15.780;2023-10-31T08:57:32;15.50;92.50
80540;DHT22;69869;48.036;15.780;2023-10-31T08:59:59;15.60;92.50
80540;DHT22;69869;48.036;15.780;2023-10-31T09:02:25;15.50;92.50
80540;DHT22;69869;48.036;15.780;2023-10-31T09:04:50;15.60;92.50
80540;DHT22;69869;48.036;15.780;2023-10-31T09:07:16;15.60;92.50
80540;DHT22;69869;48.036;15.780;2023-10-31T09:09:42;15.50;92.40
80540;DHT22;69869;48.036;15.780;2023-10-31T09:12:08;15.60;92.50
80540;DHT22;69869;48.036;15.780;2023-10-31T09:14:33;15.60;92.40
80540;DHT22;69869;48.036;15.780;2023-10-31T09:17:00;15.60;92.40
80540;DHT22;69869;48.036;15.780;2023-10-31T09:19:26;15.60;92.40
80540;DHT22;69869;48.036;15.780;2023-10-31T09:21:52;15.60;92.40
80540;DHT22;69869;48.036;15.780;2023-10-31T09:24:17;15.60;92.40
80540;DHT22;69869;48.036;15.780;2023-10-31T09:26:43;15.60;92.40
80540;DHT22;69869;48.036;15.780;2023-10-31T09:29:10;15.60;92.40
80540;DHT22;69869;48.036;15.780;2023-10-31T09:31:36;15.60;92.40
80540;DHT22;69869;48.036;15.780;2023-10-31T09:34:03;15.60;92.40
80540;DHT22;69869;48.036;15.780;2023-10-31T09:36:32;15.60;92.50
80540;DHT22;69869;48.036;15.780;2023-10-31T09:38:59;15.60;92.50
80540;DHT22;69869;48.036;15.780;2023-10-31T09:41:25;15.60;92.40
80540;DHT22;69869;48.036;15.780;2023-10-31T09:43:51;15.60;92.40
80540;DHT22;69869;48.036;15.780;2023-10-31T09:46:16;15.60;92.40
80540;DHT22;69869;48.036;15.780;2023-10-31T09:48:43;15.60;92.40
80540;DHT22;69869;48.036;15.780;2023-10-31T09:51:09;15.60;92.40
80540;DHT22;69869;48.036;15.780;2023-10-31T09:53:38;15.60;92.40
80540;DHT22;69869;48.036;15.780;2023-10-31T09:56:07;15.60;92.40
80540;DHT22;69869;48.036;15.780;2023-10-31T09:58:33;15.60;92.40
80540;DHT22;69869;48.036;15.780;2023-10-31T10:00:59;15.60;92.40
80540;DHT22;69869;48.036;15.780;2023-10-31T10:03:26;15.60;92.50
80540;DHT22;69869;48.036;15.780;2023-10-31T10:05:52;15.60;92.50
80540;DHT22;69869;48.036;15.780;2023-10-31T10:08:19;15.60;92.50
80540;DHT22;69869;48.036;15.780;2023-10-31T10:10:45;15.60;92.50
80540;DHT22;69869;48.036;15.780;2023-10-31T10:13:12;15.60;92.40
80540;DHT22;69869;48.036;15.780;2023-10-31T10:15:49;15.60;92.50
80540;DHT22;69869;48.036;15.780;2023-10-31T10:18:34;15.60;92.50
80540;DHT22;69869;48.036;15.780;2023-10-31T10:21:04;15.60;92.50
80540;DHT22;69869;48.036;15.780;2023-10-31T10:23:31;15.60;92.50
80540;DHT22;69869;48.036;15.780;2023-10-31T10:25:58;15.60;92.50
80540;DHT22;69869;48.036;15.780;2023-10-31T10:28:25;15.60;92.40
80540;DHT22;69869;48.036;15.780;2023-10-31T10:30:52;15.60;92.50
80540;DHT22;69869;48.036;15.780;2023-10-31T10:33:19;15.60;92.50
80540;DHT22;69869;48.036;15.780;2023-10-31T10:35:45;15.60;92.40
80540;DHT22;69869;48.036;15.780;2023-10-31T10:38:20;15.60;92.40
80540;DHT22;69869;48.036;15.780;2023-10-31T10:40:48;15.70;92.50
80540;DHT22;69869;48.036;15.780;2023-10-31T10:43:21;15.60;92.50
80540;DHT22;69869;48.036;15.780;2023-10-31T10:45:56;15.60;92.40
80540;DHT22;69869;48.036;15.780;2023-10-31T10:48:22;15.60;92.50
80540;DHT22;69869;48.036;15.780;2023-10-31T10:50:56;15.60;92.40
80540;DHT22;69869;48.036;15.780;2023-10-31T10:53:30;15.60;92.50
80540;DHT22;69869;48.036;15.780;2023-10-31T10:56:09;15.70;92.50
80540;DHT22;69869;48.036;15.780;2023-10-31T10:59:18;15.60;92.50
80540;DHT22;69869;48.036;15.780;2023-10-31T11:01:46;15.60;92.50
80540;DHT22;69869;48.036;15.780;2023-10-31T11:04:13;15.60;92.50
80540;DHT22;69869;48.036;15.780;2023-10-31T11:06:39;15.60;92.50
80540;DHT22;69869;48.036;15.780;2023-10-31T11:09:05;15.60;92.40
80540;DHT22;69869;48.036;15.780;2023-10-31T11:11:34;15.60;92.40
80540;DHT22;69869;48.036;15.780;2023-10-31T11:14:01;15.60;92.40
80540;DHT22;69869;48.036;15.780;2023-10-31T11:16:34;15.60;92.40
80540;DHT22;69869;48.036;15.780;2023-10-31T11:19:01;15.60;92.40
80540;DHT22;69869;48.036;15.780;2023-10-31T11:21:28;15.60;92.40
80540;DHT22;69869;48.036;15.780;2023-10-31T11:23:58;15.60;92.30
80540;DHT22;69869;48.036;15.780;2023-10-31T11:26:30;15.60;92.30
80540;DHT22;69869;48.036;15.780;2023-10-31T11:29:07;15.60;92.30
80540;DHT22;69869;48.036;15.780;2023-10-31T11:31:37;15.70;92.30
80540;DHT22;69869;48.036;15.780;2023-10-31T11:34:03;15.60;92.30
80540;DHT22;69869;48.036;15.780;2023-10-31T11:36:31;15.60;92.30
80540;DHT22;69869;48.036;15.780;2023-10-31T11:39:13;15.60;92.30
80540;DHT22;69869;48.036;15.780;2023-10-31T11:41:39;15.70;92.40
80540;DHT22;69869;48.036;15.780;2023-10-31T11:44:05;15.60;92.30
80540;DHT22;69869;48.036;15.780;2023-10-31T11:46:31;15.60;92.30
80540;DHT22;69869;48.036;15.780;2023-10-31T11:48:57;15.60;92.40
80540;DHT22;69869;48.036;15.780;2023-10-31T11:51:25;15.70;92.40
80540;DHT22;69869;48.036;15.780;2023-10-31T11:53:51;15.60;92.30
80540;DHT22;69869;48.036;15.780;2023-10-31T11:56:17;15.60;92.30
80540;DHT22;69869;48.036;15.780;2023-10-31T11:58:43;15.70;92.40
80540;DHT22;69869;48.036;15.780;2023-10-31T12:01:09;15.60;92.30
80540;DHT22;69869;48.036;15.780;2023-10-31T12:03:43;15.70;92.40
80540;DHT22;69869;48.036;15.780;2023-10-31T12:06:13;15.60;92.30
80540;DHT22;69869;48.036;15.780;2023-10-31T12:08:44;15.60;92.30
80540;DHT22;69869;48.036;15.780;2023-10-31T12:11:10;15.60;92.30
80540;DHT22;69869;48.036;15.780;2023-10-31T12:13:42;15.70;92.40
80540;DHT22;69869;48.036;15.780;2023-10-31T12:16:11;15.60;92.30
80540;DHT22;69869;48.036;15.780;2023-10-31T12:18:38;15.60;92.30
80540;DHT22;69869;48.036;15.780;2023-10-31T12:21:06;15.70;92.40
80540;DHT22;69869;48.036;15.780;2023-10-31T12:23:33;15.70;92.40
80540;DHT22;69869;48.036;15.780;2023-10-31T12:25:59;15.60;92.30
80540;DHT22;69869;48.036;15.780;2023-10-31T12:28:26;15.60;92.30
80540;DHT22;69869;48.036;15.780;2023-10-31T12:30:54;15.60;92.30
80540;DHT22;69869;48.036;15.780;2023-10-31T12:33:21;15.60;92.30
80540;DHT22;69869;48.036;15.780;2023-10-31T12:35:52;15.60;92.30
80540;DHT22;69869;48.036;15.780;2023-10-31T12:38:18;15.60;92.30
80540;DHT22;69869;48.036;15.780;2023-10-31T12:40:45;15.70;92.30
80540;DHT22;69869;48.036;15.780;2023-10-31T12:43:11;15.70;92.30
80540;DHT22;69869;48.036;15.780;2023-10-31T12:45:37;15.60;92.30
80540;DHT22;69869;48.036;15.780;2023-10-31T12:48:06;15.70;92.30
80540;DHT22;69869;48.036;15.780;2023-10-31T12:50:33;15.60;92.30
80540;DHT22;69869;48.036;15.780;2023-10-31T12:52:59;15.60;92.30
80540;DHT22;69869;48.036;15.780;2023-10-31T12:55:28;15.60;92.30
80540;DHT22;69869;48.036;15.780;2023-10-31T12:57:54;15.60;92.40
80540;DHT22;69869;48.036;15.780;2023-10-31T13:00:21;15.60;92.40
80540;DHT22;69869;48.036;15.780;2023-10-31T13:03:07;15.60;92.30
80540;DHT22;69869;48.036;15.780;2023-10-31T13:05:34;15.60;92.30
80540;DHT22;69869;48.036;15.780;2023-10-31T13:08:00;15.60;92.30
80540;DHT22;69869;48.036;15.780;2023-10-31T13:10:27;15.70;92.30
80540;DHT22;69869;48.036;15.780;2023-10-31T13:12:59;15.70;92.40
80540;DHT22;69869;48.036;15.780;2023-10-31T13:15:24;15.60;92.40
80540;DHT22;69869;48.036;15.780;2023-10-31T13:17:51;15.60;92.40
80540;DHT22;69869;48.036;15.780;2023-10-31T13:20:19;15.70;92.40
80540;DHT22;69869;48.036;15.780;2023-10-31T13:22:45;15.60;92.30
80540;DHT22;69869;48.036;15.780;2023-10-31T13:25:12;15.60;92.30
80540;DHT22;69869;48.036;15.780;2023-10-31T13:27:39;15.60;92.30
80540;DHT22;69869;48.036;15.780;2023-10-31T13:30:10;15.60;92.30
80540;DHT22;69869;48.036;15.780;2023-10-31T13:32:42;15.70;92.40
80540;DHT22;69869;48.036;15.780;2023-10-31T13:35:08;15.70;92.40
80540;DHT22;69869;48.036;15.780;2023-10-31T13:37:35;15.60;92.30
80540;DHT22;69869;48.036;15.780;2023-10-31T13:40:01;15.60;92.30
80540;DHT22;69869;48.036;15.780;2023-10-31T13:42:27;15.70;92.40
80540;DHT22;69869;48.036;15.780;2023-10-31T13:44:54;15.60;92.40
80540;DHT22;69869;48.036;15.780;2023-10-31T13:47:19;15.60;92.40
80540;DHT22;69869;48.036;15.780;2023-10-31T13:49:45;15.60;92.30
80540;DHT22;69869;48.036;15.780;2023-10-31T13:52:11;15.60;92.30
80540;DHT22;69869;48.036;15.780;2023-10-31T13:54:37;15.60;92.30
80540;DHT22;69869;48.036;15.780;2023-10-31T13:57:03;15.60;92.30
80540;DHT22;69869;48.036;15.780;2023-10-31T13:59:29;15.60;92.30
80540;DHT22;69869;48.036;15.780;2023-10-31T14:01:54;15.70;92.40
80540;DHT22;69869;48.036;15.780;2023-10-31T14:04:20;15.60;92.30
80540;DHT22;69869;48.036;15.780;2023-10-31T14:06:46;15.60;92.30
80540;DHT22;69869;48.036;15.780;2023-10-31T14:09:12;15.70;92.30
80540;DHT22;69869;48.036;15.780;2023-10-31T14:11:39;15.70;92.30
80540;DHT22;69869;48.036;15.780;2023-10-31T14:14:06;15.70;92.30
80540;DHT22;69869;48.036;15.780;2023-10-31T14:16:36;15.70;92.30
80540;DHT22;69869;48.036;15.780;2023-10-31T14:19:02;15.60;92.30
80540;DHT22;69869;48.036;15.780;2023-10-31T14:21:29;15.60;92.30
80540;DHT22;69869;48.036;15.780;2023-10-31T14:23:54;15.60;92.30
80540;DHT22;69869;48.036;15.780;2023-10-31T14:26:21;15.70;92.30
80540;DHT22;69869;48.036;15.780;2023-10-31T14:28:47;15.60;92.20
80540;DHT22;69869;48.036;15.780;2023-10-31T14:31:14;15.60;92.20
80540;DHT22;69869;48.036;15.780;2023-10-31T14:33:41;15.60;92.20
80540;DHT22;69869;48.036;15.780;2023-10-31T14:36:07;15.70;92.20
80540;DHT22;69869;48.036;15.780;2023-10-31T14:38:35;15.70;92.20
80540;DHT22;69869;48.036;15.780;2023-10-31T14:41:01;15.60;92.20
80540;DHT22;69869;48.036;15.780;2023-10-31T14:43:27;15.60;92.30
80540;DHT22;69869;48.036;15.780;2023-10-31T14:45:52;15.60;92.30
80540;DHT22;69869;48.036;15.780;2023-10-31T14:48:20;15.70;92.30
80540;DHT22;69869;48.036;15.780;2023-10-31T14:50:46;15.60;92.30
80540;DHT22;69869;48.036;15.780;2023-10-31T14:53:12;15.70;92.30
80540;DHT22;69869;48.036;15.780;2023-10-31T14:55:38;15.60;92.30
80540;DHT22;69869;48.036;15.780;2023-10-31T14:58:04;15.60;92.30
80540;DHT22;69869;48.036;15.780;2023-10-31T15:00:29;15.70;92.30
80540;DHT22;69869;48.036;15.780;2023-10-31T15:02:56;15.60;92.30
80540;DHT22;69869;48.036;15.780;2023-10-31T15:05:22;15.60;92.30
80540;DHT22;69869;48.036;15.780;2023-10-31T15:07:48;15.60;92.30
80540;DHT22;69869;48.036;15.780;2023-10-31T15:10:14;15.60;92.30
80540;DHT22;69869;48.036;15.780;2023-10-31T15:12:40;15.70;92.40